sensor_id;sensor_type;location;lat;lon;timestamp;P1;durP1;ratioP1;P2;durP2;ratioP2
19778;SDS011;10049;59.306;18.090;2023-05-23T00:02:03;6.80;;;1.58;;
19778;SDS011;10049;59.306;18.090;2023-05-23T00:04:32;2.83;;;1.50;;
19778;SDS011;10049;59.306;18.090;2023-05-23T00:07:02;2.42;;;1.45;;
19778;SDS011;10049;59.306;18.090;2023-05-23T00:09:29;5.28;;;1.70;;
19778;SDS011;10049;59.306;18.090;2023-05-23T00:11:57;2.58;;;1.42;;
19778;SDS011;10049;59.306;18.090;2023-05-23T00:14:26;2.38;;;1.38;;
19778;SDS011;10049;59.306;18.090;2023-05-23T00:16:58;6.50;;;1.90;;
19778;SDS011;10049;59.306;18.090;2023-05-23T00:19:26;3.63;;;1.42;;
19778;SDS011;10049;59.306;18.090;2023-05-23T00:21:54;2.33;;;1.30;;
19778;SDS011;10049;59.306;18.090;2023-05-23T00:24:24;4.68;;;1.70;;
19778;SDS011;10049;59.306;18.090;2023-05-23T00:26:52;2.60;;;1.33;;
19778;SDS011;10049;59.306;18.090;2023-05-23T00:29:20;2.20;;;1.20;;
19778;SDS011;10049;59.306;18.090;2023-05-23T00:31:49;2.10;;;1.23;;
19778;SDS011;10049;59.306;18.090;2023-05-23T00:34:17;2.97;;;1.35;;
19778;SDS011;10049;59.306;18.090;2023-05-23T00:36:44;3.50;;;1.48;;
19778;SDS011;10049;59.306;18.090;2023-05-23T00:39:14;3.88;;;1.27;;
19778;SDS011;10049;59.306;18.090;2023-05-23T00:41:45;2.80;;;1.30;;
19778;SDS011;10049;59.306;18.090;2023-05-23T00:44:12;5.32;;;1.30;;
19778;SDS011;10049;59.306;18.090;2023-05-23T00:46:40;4.47;;;1.48;;
19778;SDS011;10049;59.306;18.090;2023-05-23T00:49:11;4.38;;;1.50;;
19778;SDS011;10049;59.306;18.090;2023-05-23T00:51:39;4.70;;;1.08;;
19778;SDS011;10049;59.306;18.090;2023-05-23T00:54:07;2.63;;;1.33;;
19778;SDS011;10049;59.306;18.090;2023-05-23T00:56:36;3.15;;;1.17;;
19778;SDS011;10049;59.306;18.090;2023-05-23T00:59:05;5.65;;;1.50;;
19778;SDS011;10049;59.306;18.090;2023-05-23T01:01:34;4.90;;;1.50;;
19778;SDS011;10049;59.306;18.090;2023-05-23T01:04:02;1.85;;;1.08;;
19778;SDS011;10049;59.306;18.090;2023-05-23T01:06:32;4.18;;;1.50;;
19778;SDS011;10049;59.306;18.090;2023-05-23T01:09:01;3.50;;;1.10;;
19778;SDS011;10049;59.306;18.090;2023-05-23T01:11:33;2.25;;;1.30;;
19778;SDS011;10049;59.306;18.090;2023-05-23T01:14:03;2.05;;;1.10;;
19778;SDS011;10049;59.306;18.090;2023-05-23T01:16:34;1.63;;;1.20;;
19778;SDS011;10049;59.306;18.090;2023-05-23T01:19:04;2.60;;;1.20;;
19778;SDS011;10049;59.306;18.090;2023-05-23T01:21:38;3.08;;;1.08;;
19778;SDS011;10049;59.306;18.090;2023-05-23T01:27:02;1.55;;;1.20;;
19778;SDS011;10049;59.306;18.090;2023-05-23T01:29:36;3.78;;;1.20;;
19778;SDS011;10049;59.306;18.090;2023-05-23T01:32:06;2.55;;;1.15;;
19778;SDS011;10049;59.306;18.090;2023-05-23T01:34:35;4.07;;;1.00;;
19778;SDS011;10049;59.306;18.090;2023-05-23T01:37:03;3.10;;;1.10;;
19778;SDS011;10049;59.306;18.090;2023-05-23T01:39:33;5.57;;;1.23;;
19778;SDS011;10049;59.306;18.090;2023-05-23T01:42:01;1.15;;;1.05;;
19778;SDS011;10049;59.306;18.090;2023-05-23T01:44:30;4.53;;;1.60;;
19778;SDS011;10049;59.306;18.090;2023-05-23T01:47:00;8.25;;;1.27;;
19778;SDS011;10049;59.306;18.090;2023-05-23T01:49:29;6.28;;;1.33;;
19778;SDS011;10049;59.306;18.090;2023-05-23T01:51:58;6.45;;;1.30;;
19778;SDS011;10049;59.306;18.090;2023-05-23T01:54:27;5.30;;;1.40;;
19778;SDS011;10049;59.306;18.090;2023-05-23T01:56:56;4.68;;;1.20;;
19778;SDS011;10049;59.306;18.090;2023-05-23T01:59:24;7.95;;;1.20;;
19778;SDS011;10049;59.306;18.090;2023-05-23T02:01:51;3.47;;;1.35;;
19778;SDS011;10049;59.306;18.090;2023-05-23T02:04:23;7.88;;;1.27;;
19778;SDS011;10049;59.306;18.090;2023-05-23T02:06:51;1.40;;;1.10;;
19778;SDS011;10049;59.306;18.090;2023-05-23T02:09:18;5.82;;;1.25;;
19778;SDS011;10049;59.306;18.090;2023-05-23T02:11:46;3.60;;;1.10;;
19778;SDS011;10049;59.306;18.090;2023-05-23T02:14:13;3.35;;;1.20;;
19778;SDS011;10049;59.306;18.090;2023-05-23T02:16:42;6.85;;;1.20;;
19778;SDS011;10049;59.306;18.090;2023-05-23T02:19:10;5.05;;;1.10;;
19778;SDS011;10049;59.306;18.090;2023-05-23T02:21:39;4.75;;;1.10;;
19778;SDS011;10049;59.306;18.090;2023-05-23T02:24:07;4.30;;;1.02;;
19778;SDS011;10049;59.306;18.090;2023-05-23T02:26:35;2.47;;;1.10;;
19778;SDS011;10049;59.306;18.090;2023-05-23T02:29:05;1.42;;;1.00;;
19778;SDS011;10049;59.306;18.090;2023-05-23T02:31:33;4.28;;;1.00;;
19778;SDS011;10049;59.306;18.090;2023-05-23T02:34:01;3.08;;;1.10;;
19778;SDS011;10049;59.306;18.090;2023-05-23T02:36:28;1.40;;;1.20;;
19778;SDS011;10049;59.306;18.090;2023-05-23T02:39:00;1.83;;;0.90;;
19778;SDS011;10049;59.306;18.090;2023-05-23T02:41:29;6.22;;;1.30;;
19778;SDS011;10049;59.306;18.090;2023-05-23T02:43:56;1.13;;;0.90;;
19778;SDS011;10049;59.306;18.090;2023-05-23T02:46:24;4.07;;;1.00;;
19778;SDS011;10049;59.306;18.090;2023-05-23T02:48:51;2.05;;;0.90;;
19778;SDS011;10049;59.306;18.090;2023-05-23T02:51:19;1.77;;;1.05;;
19778;SDS011;10049;59.306;18.090;2023-05-23T02:53:46;6.28;;;1.20;;
19778;SDS011;10049;59.306;18.090;2023-05-23T02:56:16;1.67;;;1.10;;
19778;SDS011;10049;59.306;18.090;2023-05-23T02:58:44;0.82;;;0.82;;
19778;SDS011;10049;59.306;18.090;2023-05-23T03:01:11;0.90;;;0.90;;
19778;SDS011;10049;59.306;18.090;2023-05-23T03:03:39;2.88;;;1.00;;
19778;SDS011;10049;59.306;18.090;2023-05-23T03:06:07;4.25;;;1.00;;
19778;SDS011;10049;59.306;18.090;2023-05-23T03:08:38;1.33;;;1.00;;
19778;SDS011;10049;59.306;18.090;2023-05-23T03:11:06;1.00;;;0.90;;
19778;SDS011;10049;59.306;18.090;2023-05-23T03:13:35;2.03;;;1.00;;
19778;SDS011;10049;59.306;18.090;2023-05-23T03:16:02;4.88;;;1.15;;
19778;SDS011;10049;59.306;18.090;2023-05-23T03:18:29;3.30;;;1.15;;
19778;SDS011;10049;59.306;18.090;2023-05-23T03:20:57;4.55;;;0.90;;
19778;SDS011;10049;59.306;18.090;2023-05-23T03:23:25;1.55;;;1.15;;
19778;SDS011;10049;59.306;18.090;2023-05-23T03:25:52;1.38;;;0.88;;
19778;SDS011;10049;59.306;18.090;2023-05-23T03:28:20;1.98;;;1.02;;
19778;SDS011;10049;59.306;18.090;2023-05-23T03:30:49;1.08;;;0.80;;
19778;SDS011;10049;59.306;18.090;2023-05-23T03:33:17;6.88;;;1.20;;
19778;SDS011;10049;59.306;18.090;2023-05-23T03:35:45;3.70;;;1.00;;
19778;SDS011;10049;59.306;18.090;2023-05-23T03:38:12;1.73;;;0.88;;
19778;SDS011;10049;59.306;18.090;2023-05-23T03:40:40;6.65;;;0.90;;
19778;SDS011;10049;59.306;18.090;2023-05-23T03:43:07;1.63;;;1.00;;
19778;SDS011;10049;59.306;18.090;2023-05-23T03:45:35;5.28;;;0.90;;
19778;SDS011;10049;59.306;18.090;2023-05-23T03:48:04;1.63;;;1.00;;
19778;SDS011;10049;59.306;18.090;2023-05-23T03:50:31;1.10;;;0.90;;
19778;SDS011;10049;59.306;18.090;2023-05-23T03:52:59;1.42;;;0.90;;
19778;SDS011;10049;59.306;18.090;2023-05-23T03:55:27;5.05;;;0.90;;
19778;SDS011;10049;59.306;18.090;2023-05-23T03:57:56;2.25;;;1.02;;
19778;SDS011;10049;59.306;18.090;2023-05-23T04:00:23;3.15;;;1.10;;
19778;SDS011;10049;59.306;18.090;2023-05-23T04:02:51;3.28;;;0.90;;
19778;SDS011;10049;59.306;18.090;2023-05-23T04:05:23;0.98;;;0.90;;
19778;SDS011;10049;59.306;18.090;2023-05-23T04:07:51;4.07;;;1.05;;
19778;SDS011;10049;59.306;18.090;2023-05-23T04:10:18;2.58;;;1.08;;
19778;SDS011;10049;59.306;18.090;2023-05-23T04:12:46;1.58;;;1.00;;
19778;SDS011;10049;59.306;18.090;2023-05-23T04:15:16;5.25;;;1.10;;
19778;SDS011;10049;59.306;18.090;2023-05-23T04:17:46;1.27;;;0.88;;
19778;SDS011;10049;59.306;18.090;2023-05-23T04:20:15;4.80;;;1.30;;
19778;SDS011;10049;59.306;18.090;2023-05-23T04:22:45;1.67;;;1.00;;
19778;SDS011;10049;59.306;18.090;2023-05-23T04:25:14;5.32;;;1.05;;
19778;SDS011;10049;59.306;18.090;2023-05-23T04:27:42;1.10;;;1.00;;
19778;SDS011;10049;59.306;18.090;2023-05-23T04:30:11;1.88;;;1.00;;
19778;SDS011;10049;59.306;18.090;2023-05-23T04:32:40;2.33;;;1.05;;
19778;SDS011;10049;59.306;18.090;2023-05-23T04:35:08;2.78;;;0.98;;
19778;SDS011;10049;59.306;18.090;2023-05-23T04:37:36;1.55;;;1.00;;
19778;SDS011;10049;59.306;18.090;2023-05-23T04:40:05;4.28;;;0.90;;
19778;SDS011;10049;59.306;18.090;2023-05-23T04:42:33;1.38;;;1.10;;
19778;SDS011;10049;59.306;18.090;2023-05-23T04:45:00;2.65;;;1.00;;
19778;SDS011;10049;59.306;18.090;2023-05-23T04:47:28;2.30;;;1.20;;
19778;SDS011;10049;59.306;18.090;2023-05-23T04:49:58;4.85;;;0.90;;
19778;SDS011;10049;59.306;18.090;2023-05-23T04:52:26;3.28;;;1.10;;
19778;SDS011;10049;59.306;18.090;2023-05-23T04:54:54;5.20;;;1.10;;
19778;SDS011;10049;59.306;18.090;2023-05-23T04:57:24;1.58;;;0.90;;
19778;SDS011;10049;59.306;18.090;2023-05-23T04:59:52;1.42;;;0.98;;
19778;SDS011;10049;59.306;18.090;2023-05-23T05:02:21;2.38;;;0.85;;
19778;SDS011;10049;59.306;18.090;2023-05-23T05:04:48;5.00;;;1.02;;
19778;SDS011;10049;59.306;18.090;2023-05-23T05:07:15;3.25;;;0.90;;
19778;SDS011;10049;59.306;18.090;2023-05-23T05:09:43;3.90;;;0.80;;
19778;SDS011;10049;59.306;18.090;2023-05-23T05:12:11;1.42;;;0.80;;
19778;SDS011;10049;59.306;18.090;2023-05-23T05:14:42;6.57;;;1.02;;
19778;SDS011;10049;59.306;18.090;2023-05-23T05:17:10;5.97;;;1.30;;
19778;SDS011;10049;59.306;18.090;2023-05-23T05:19:38;1.67;;;0.70;;
19778;SDS011;10049;59.306;18.090;2023-05-23T05:22:06;6.60;;;1.00;;
19778;SDS011;10049;59.306;18.090;2023-05-23T05:24:34;2.67;;;0.93;;
19778;SDS011;10049;59.306;18.090;2023-05-23T05:27:01;1.00;;;0.70;;
19778;SDS011;10049;59.306;18.090;2023-05-23T05:29:29;3.78;;;0.80;;
19778;SDS011;10049;59.306;18.090;2023-05-23T05:31:59;2.85;;;0.70;;
19778;SDS011;10049;59.306;18.090;2023-05-23T05:34:27;2.63;;;0.80;;
19778;SDS011;10049;59.306;18.090;2023-05-23T05:36:55;4.85;;;0.90;;
19778;SDS011;10049;59.306;18.090;2023-05-23T05:39:23;4.10;;;0.70;;
19778;SDS011;10049;59.306;18.090;2023-05-23T05:41:51;1.23;;;0.70;;
19778;SDS011;10049;59.306;18.090;2023-05-23T05:44:21;3.88;;;1.15;;
19778;SDS011;10049;59.306;18.090;2023-05-23T05:46:49;1.95;;;0.98;;
19778;SDS011;10049;59.306;18.090;2023-05-23T05:49:20;2.78;;;0.75;;
19778;SDS011;10049;59.306;18.090;2023-05-23T05:51:49;2.42;;;0.70;;
19778;SDS011;10049;59.306;18.090;2023-05-23T05:54:17;3.25;;;0.70;;
19778;SDS011;10049;59.306;18.090;2023-05-23T05:56:45;2.17;;;0.90;;
19778;SDS011;10049;59.306;18.090;2023-05-23T05:59:15;2.22;;;0.60;;
19778;SDS011;10049;59.306;18.090;2023-05-23T06:01:42;2.67;;;0.70;;
19778;SDS011;10049;59.306;18.090;2023-05-23T06:04:10;4.32;;;0.90;;
19778;SDS011;10049;59.306;18.090;2023-05-23T06:06:39;5.95;;;1.05;;
19778;SDS011;10049;59.306;18.090;2023-05-23T06:09:07;4.68;;;0.82;;
19778;SDS011;10049;59.306;18.090;2023-05-23T06:11:34;3.25;;;0.80;;
19778;SDS011;10049;59.306;18.090;2023-05-23T06:14:05;1.10;;;0.70;;
19778;SDS011;10049;59.306;18.090;2023-05-23T06:16:32;2.55;;;0.98;;
19778;SDS011;10049;59.306;18.090;2023-05-23T06:19:00;6.45;;;1.00;;
19778;SDS011;10049;59.306;18.090;2023-05-23T06:21:28;0.63;;;0.60;;
19778;SDS011;10049;59.306;18.090;2023-05-23T06:23:57;5.28;;;0.60;;
19778;SDS011;10049;59.306;18.090;2023-05-23T06:26:24;7.75;;;0.80;;
19778;SDS011;10049;59.306;18.090;2023-05-23T06:28:52;5.03;;;0.80;;
19778;SDS011;10049;59.306;18.090;2023-05-23T06:31:19;2.90;;;1.00;;
19778;SDS011;10049;59.306;18.090;2023-05-23T06:33:47;6.40;;;0.77;;
19778;SDS011;10049;59.306;18.090;2023-05-23T06:36:15;6.50;;;0.80;;
19778;SDS011;10049;59.306;18.090;2023-05-23T06:38:42;2.85;;;0.70;;
19778;SDS011;10049;59.306;18.090;2023-05-23T06:41:12;6.63;;;0.85;;
19778;SDS011;10049;59.306;18.090;2023-05-23T06:43:39;2.53;;;0.73;;
19778;SDS011;10049;59.306;18.090;2023-05-23T06:46:09;2.97;;;0.80;;
19778;SDS011;10049;59.306;18.090;2023-05-23T06:48:37;3.60;;;0.88;;
19778;SDS011;10049;59.306;18.090;2023-05-23T06:51:06;3.72;;;0.93;;
19778;SDS011;10049;59.306;18.090;2023-05-23T06:53:34;1.67;;;0.80;;
19778;SDS011;10049;59.306;18.090;2023-05-23T06:56:02;3.00;;;0.80;;
19778;SDS011;10049;59.306;18.090;2023-05-23T06:58:31;7.38;;;1.00;;
19778;SDS011;10049;59.306;18.090;2023-05-23T07:00:59;2.50;;;0.90;;
19778;SDS011;10049;59.306;18.090;2023-05-23T07:03:26;6.93;;;1.27;;
19778;SDS011;10049;59.306;18.090;2023-05-23T07:05:54;4.00;;;0.80;;
19778;SDS011;10049;59.306;18.090;2023-05-23T07:08:21;1.73;;;0.80;;
19778;SDS011;10049;59.306;18.090;2023-05-23T07:10:49;8.05;;;0.88;;
19778;SDS011;10049;59.306;18.090;2023-05-23T07:13:18;1.48;;;0.82;;
19778;SDS011;10049;59.306;18.090;2023-05-23T07:15:47;2.70;;;0.90;;
19778;SDS011;10049;59.306;18.090;2023-05-23T07:18:19;3.00;;;0.68;;
19778;SDS011;10049;59.306;18.090;2023-05-23T07:20:47;2.95;;;0.70;;
19778;SDS011;10049;59.306;18.090;2023-05-23T07:23:15;5.60;;;1.00;;
19778;SDS011;10049;59.306;18.090;2023-05-23T07:25:42;2.55;;;0.80;;
19778;SDS011;10049;59.306;18.090;2023-05-23T07:28:11;4.82;;;0.98;;
19778;SDS011;10049;59.306;18.090;2023-05-23T07:30:38;12.48;;;0.90;;
19778;SDS011;10049;59.306;18.090;2023-05-23T07:36:15;10.40;;;1.00;;
19778;SDS011;10049;59.306;18.090;2023-05-23T07:39:21;4.63;;;0.80;;
19778;SDS011;10049;59.306;18.090;2023-05-23T07:41:55;4.63;;;1.42;;
19778;SDS011;10049;59.306;18.090;2023-05-23T07:44:27;3.05;;;0.90;;
19778;SDS011;10049;59.306;18.090;2023-05-23T07:46:55;2.67;;;0.70;;
19778;SDS011;10049;59.306;18.090;2023-05-23T07:49:25;3.05;;;1.15;;
19778;SDS011;10049;59.306;18.090;2023-05-23T07:52:09;1.23;;;0.70;;
19778;SDS011;10049;59.306;18.090;2023-05-23T07:54:37;0.80;;;0.60;;
19778;SDS011;10049;59.306;18.090;2023-05-23T08:00:17;3.10;;;0.82;;
19778;SDS011;10049;59.306;18.090;2023-05-23T08:02:47;3.88;;;0.60;;
19778;SDS011;10049;59.306;18.090;2023-05-23T08:05:17;3.00;;;0.73;;
19778;SDS011;10049;59.306;18.090;2023-05-23T08:07:50;4.20;;;0.88;;
19778;SDS011;10049;59.306;18.090;2023-05-23T08:10:19;5.10;;;0.80;;
19778;SDS011;10049;59.306;18.090;2023-05-23T08:12:50;3.45;;;0.80;;
19778;SDS011;10049;59.306;18.090;2023-05-23T08:15:18;2.80;;;0.98;;
19778;SDS011;10049;59.306;18.090;2023-05-23T08:18:01;2.58;;;0.70;;
19778;SDS011;10049;59.306;18.090;2023-05-23T08:20:31;3.33;;;0.60;;
19778;SDS011;10049;59.306;18.090;2023-05-23T08:23:01;3.47;;;0.70;;
19778;SDS011;10049;59.306;18.090;2023-05-23T08:25:42;3.35;;;0.75;;
19778;SDS011;10049;59.306;18.090;2023-05-23T08:28:09;2.25;;;0.88;;
19778;SDS011;10049;59.306;18.090;2023-05-23T08:30:37;1.40;;;0.70;;
19778;SDS011;10049;59.306;18.090;2023-05-23T08:33:05;3.88;;;0.80;;
19778;SDS011;10049;59.306;18.090;2023-05-23T08:35:32;0.63;;;0.60;;
19778;SDS011;10049;59.306;18.090;2023-05-23T08:38:03;2.30;;;0.80;;
19778;SDS011;10049;59.306;18.090;2023-05-23T08:40:31;2.58;;;0.98;;
19778;SDS011;10049;59.306;18.090;2023-05-23T08:43:00;0.90;;;0.60;;
19778;SDS011;10049;59.306;18.090;2023-05-23T08:45:28;4.55;;;0.80;;
19778;SDS011;10049;59.306;18.090;2023-05-23T08:47:56;0.73;;;0.50;;
19778;SDS011;10049;59.306;18.090;2023-05-23T08:50:27;2.05;;;0.77;;
19778;SDS011;10049;59.306;18.090;2023-05-23T08:52:55;2.70;;;0.60;;
19778;SDS011;10049;59.306;18.090;2023-05-23T08:55:25;2.05;;;0.70;;
19778;SDS011;10049;59.306;18.090;2023-05-23T08:57:53;4.18;;;0.70;;
19778;SDS011;10049;59.306;18.090;2023-05-23T09:00:21;3.00;;;0.80;;
19778;SDS011;10049;59.306;18.090;2023-05-23T09:02:49;1.85;;;0.60;;
19778;SDS011;10049;59.306;18.090;2023-05-23T09:05:18;3.35;;;0.50;;
19778;SDS011;10049;59.306;18.090;2023-05-23T09:07:46;3.00;;;0.70;;
19778;SDS011;10049;59.306;18.090;2023-05-23T09:10:15;1.65;;;0.55;;
19778;SDS011;10049;59.306;18.090;2023-05-23T09:12:46;2.60;;;0.70;;
19778;SDS011;10049;59.306;18.090;2023-05-23T09:15:14;2.15;;;0.60;;
19778;SDS011;10049;59.306;18.090;2023-05-23T09:17:42;2.17;;;0.60;;
19778;SDS011;10049;59.306;18.090;2023-05-23T09:20:11;2.63;;;0.70;;
19778;SDS011;10049;59.306;18.090;2023-05-23T09:22:39;2.55;;;0.60;;
19778;SDS011;10049;59.306;18.090;2023-05-23T09:25:08;1.00;;;0.60;;
19778;SDS011;10049;59.306;18.090;2023-05-23T09:27:35;5.47;;;0.60;;
19778;SDS011;10049;59.306;18.090;2023-05-23T09:30:08;0.95;;;0.50;;
19778;SDS011;10049;59.306;18.090;2023-05-23T09:32:38;2.97;;;0.70;;
19778;SDS011;10049;59.306;18.090;2023-05-23T09:35:06;2.65;;;0.57;;
19778;SDS011;10049;59.306;18.090;2023-05-23T09:37:37;8.15;;;1.10;;
19778;SDS011;10049;59.306;18.090;2023-05-23T09:40:06;1.83;;;0.70;;
19778;SDS011;10049;59.306;18.090;2023-05-23T09:42:35;0.57;;;0.40;;
19778;SDS011;10049;59.306;18.090;2023-05-23T09:45:03;0.63;;;0.50;;
19778;SDS011;10049;59.306;18.090;2023-05-23T09:47:33;4.43;;;0.70;;
19778;SDS011;10049;59.306;18.090;2023-05-23T09:50:00;2.97;;;0.70;;
19778;SDS011;10049;59.306;18.090;2023-05-23T09:52:32;0.95;;;0.50;;
19778;SDS011;10049;59.306;18.090;2023-05-23T09:55:00;1.85;;;0.60;;
19778;SDS011;10049;59.306;18.090;2023-05-23T09:57:28;0.50;;;0.50;;
19778;SDS011;10049;59.306;18.090;2023-05-23T09:59:57;3.95;;;0.50;;
19778;SDS011;10049;59.306;18.090;2023-05-23T10:02:46;4.45;;;0.70;;
19778;SDS011;10049;59.306;18.090;2023-05-23T10:05:21;5.38;;;0.85;;
19778;SDS011;10049;59.306;18.090;2023-05-23T10:07:56;0.65;;;0.63;;
19778;SDS011;10049;59.306;18.090;2023-05-23T10:10:24;4.38;;;0.88;;
19778;SDS011;10049;59.306;18.090;2023-05-23T10:12:53;0.60;;;0.60;;
19778;SDS011;10049;59.306;18.090;2023-05-23T10:15:22;1.05;;;0.65;;
19778;SDS011;10049;59.306;18.090;2023-05-23T10:17:59;4.85;;;0.93;;
19778;SDS011;10049;59.306;18.090;2023-05-23T10:20:28;4.63;;;0.70;;
19778;SDS011;10049;59.306;18.090;2023-05-23T10:22:58;0.77;;;0.70;;
19778;SDS011;10049;59.306;18.090;2023-05-23T10:25:26;1.25;;;0.70;;
19778;SDS011;10049;59.306;18.090;2023-05-23T10:27:55;2.05;;;0.75;;
19778;SDS011;10049;59.306;18.090;2023-05-23T10:30:24;1.38;;;0.70;;
19778;SDS011;10049;59.306;18.090;2023-05-23T10:32:53;1.77;;;0.98;;
19778;SDS011;10049;59.306;18.090;2023-05-23T10:35:23;1.42;;;0.77;;
19778;SDS011;10049;59.306;18.090;2023-05-23T10:37:54;4.63;;;0.80;;
19778;SDS011;10049;59.306;18.090;2023-05-23T10:40:26;3.95;;;1.00;;
19778;SDS011;10049;59.306;18.090;2023-05-23T10:42:59;9.23;;;0.90;;
19778;SDS011;10049;59.306;18.090;2023-05-23T10:45:28;1.40;;;0.77;;
19778;SDS011;10049;59.306;18.090;2023-05-23T10:47:58;3.17;;;0.85;;
19778;SDS011;10049;59.306;18.090;2023-05-23T10:50:30;3.33;;;0.70;;
19778;SDS011;10049;59.306;18.090;2023-05-23T10:52:58;1.33;;;0.90;;
19778;SDS011;10049;59.306;18.090;2023-05-23T10:55:30;5.35;;;0.80;;
19778;SDS011;10049;59.306;18.090;2023-05-23T10:58:08;2.38;;;0.80;;
19778;SDS011;10049;59.306;18.090;2023-05-23T11:00:36;7.03;;;0.80;;
19778;SDS011;10049;59.306;18.090;2023-05-23T11:03:05;0.75;;;0.60;;
19778;SDS011;10049;59.306;18.090;2023-05-23T11:05:35;2.53;;;0.90;;
19778;SDS011;10049;59.306;18.090;2023-05-23T11:08:08;3.63;;;0.80;;
19778;SDS011;10049;59.306;18.090;2023-05-23T11:10:50;0.65;;;0.65;;
19778;SDS011;10049;59.306;18.090;2023-05-23T11:13:18;3.83;;;0.80;;
19778;SDS011;10049;59.306;18.090;2023-05-23T11:15:47;2.90;;;0.63;;
19778;SDS011;10049;59.306;18.090;2023-05-23T11:18:22;3.75;;;0.60;;
19778;SDS011;10049;59.306;18.090;2023-05-23T11:20:51;1.23;;;0.70;;
19778;SDS011;10049;59.306;18.090;2023-05-23T11:23:19;0.98;;;0.70;;
19778;SDS011;10049;59.306;18.090;2023-05-23T11:25:47;5.32;;;0.90;;
19778;SDS011;10049;59.306;18.090;2023-05-23T11:28:16;3.08;;;0.70;;
19778;SDS011;10049;59.306;18.090;2023-05-23T11:30:46;2.15;;;0.90;;
19778;SDS011;10049;59.306;18.090;2023-05-23T11:33:14;1.27;;;0.70;;
19778;SDS011;10049;59.306;18.090;2023-05-23T11:35:45;1.20;;;0.60;;
19778;SDS011;10049;59.306;18.090;2023-05-23T11:38:17;2.80;;;0.60;;
19778;SDS011;10049;59.306;18.090;2023-05-23T11:40:45;2.83;;;0.57;;
19778;SDS011;10049;59.306;18.090;2023-05-23T11:43:13;1.70;;;0.80;;
19778;SDS011;10049;59.306;18.090;2023-05-23T11:45:42;2.65;;;1.00;;
19778;SDS011;10049;59.306;18.090;2023-05-23T11:48:11;1.35;;;0.60;;
19778;SDS011;10049;59.306;18.090;2023-05-23T11:50:44;3.60;;;0.80;;
19778;SDS011;10049;59.306;18.090;2023-05-23T11:53:12;0.65;;;0.65;;
19778;SDS011;10049;59.306;18.090;2023-05-23T11:55:47;0.85;;;0.75;;
19778;SDS011;10049;59.306;18.090;2023-05-23T11:58:18;3.25;;;0.80;;
19778;SDS011;10049;59.306;18.090;2023-05-23T12:00:50;3.80;;;1.00;;
19778;SDS011;10049;59.306;18.090;2023-05-23T12:03:19;4.50;;;1.00;;
19778;SDS011;10049;59.306;18.090;2023-05-23T12:05:51;1.38;;;0.88;;
19778;SDS011;10049;59.306;18.090;2023-05-23T12:08:21;0.85;;;0.80;;
19778;SDS011;10049;59.306;18.090;2023-05-23T12:10:50;2.35;;;1.00;;
19778;SDS011;10049;59.306;18.090;2023-05-23T12:13:18;10.60;;;0.80;;
19778;SDS011;10049;59.306;18.090;2023-05-23T12:15:46;2.47;;;1.00;;
19778;SDS011;10049;59.306;18.090;2023-05-23T12:18:14;3.55;;;0.93;;
19778;SDS011;10049;59.306;18.090;2023-05-23T12:20:41;4.45;;;0.90;;
19778;SDS011;10049;59.306;18.090;2023-05-23T12:23:18;1.90;;;0.90;;
19778;SDS011;10049;59.306;18.090;2023-05-23T12:25:48;2.85;;;0.82;;
19778;SDS011;10049;59.306;18.090;2023-05-23T12:28:16;4.53;;;0.65;;
19778;SDS011;10049;59.306;18.090;2023-05-23T12:30:44;4.07;;;0.80;;
19778;SDS011;10049;59.306;18.090;2023-05-23T12:33:14;2.78;;;0.80;;
19778;SDS011;10049;59.306;18.090;2023-05-23T12:35:45;2.60;;;0.88;;
19778;SDS011;10049;59.306;18.090;2023-05-23T12:38:17;3.45;;;0.80;;
19778;SDS011;10049;59.306;18.090;2023-05-23T12:40:54;2.80;;;0.80;;
19778;SDS011;10049;59.306;18.090;2023-05-23T12:43:36;0.88;;;0.80;;
19778;SDS011;10049;59.306;18.090;2023-05-23T12:46:04;2.38;;;0.90;;
19778;SDS011;10049;59.306;18.090;2023-05-23T12:48:33;1.05;;;0.75;;
19778;SDS011;10049;59.306;18.090;2023-05-23T12:51:01;9.48;;;0.80;;
19778;SDS011;10049;59.306;18.090;2023-05-23T12:53:36;1.77;;;0.80;;
19778;SDS011;10049;59.306;18.090;2023-05-23T12:56:19;0.70;;;0.60;;
19778;SDS011;10049;59.306;18.090;2023-05-23T12:58:47;0.90;;;0.90;;
19778;SDS011;10049;59.306;18.090;2023-05-23T13:01:15;0.70;;;0.70;;
19778;SDS011;10049;59.306;18.090;2023-05-23T13:03:42;1.52;;;0.80;;
19778;SDS011;10049;59.306;18.090;2023-05-23T13:06:10;2.85;;;0.80;;
19778;SDS011;10049;59.306;18.090;2023-05-23T13:08:40;1.58;;;0.70;;
19778;SDS011;10049;59.306;18.090;2023-05-23T13:11:08;2.28;;;0.80;;
19778;SDS011;10049;59.306;18.090;2023-05-23T13:13:35;4.00;;;1.13;;
19778;SDS011;10049;59.306;18.090;2023-05-23T13:16:03;2.75;;;0.80;;
19778;SDS011;10049;59.306;18.090;2023-05-23T13:18:31;4.88;;;0.80;;
19778;SDS011;10049;59.306;18.090;2023-05-23T13:20:59;0.60;;;0.60;;
19778;SDS011;10049;59.306;18.090;2023-05-23T13:23:35;3.95;;;0.90;;
19778;SDS011;10049;59.306;18.090;2023-05-23T13:26:05;0.77;;;0.70;;
19778;SDS011;10049;59.306;18.090;2023-05-23T13:28:33;0.85;;;0.75;;
19778;SDS011;10049;59.306;18.090;2023-05-23T13:31:00;2.28;;;0.95;;
19778;SDS011;10049;59.306;18.090;2023-05-23T13:33:29;2.35;;;0.82;;
19778;SDS011;10049;59.306;18.090;2023-05-23T13:35:57;3.55;;;0.63;;
19778;SDS011;10049;59.306;18.090;2023-05-23T13:38:25;1.20;;;0.80;;
19778;SDS011;10049;59.306;18.090;2023-05-23T13:40:55;2.85;;;0.90;;
19778;SDS011;10049;59.306;18.090;2023-05-23T13:43:27;2.45;;;0.98;;
19778;SDS011;10049;59.306;18.090;2023-05-23T13:45:56;1.13;;;0.75;;
19778;SDS011;10049;59.306;18.090;2023-05-23T13:48:25;1.83;;;1.00;;
19778;SDS011;10049;59.306;18.090;2023-05-23T13:50:55;2.05;;;0.70;;
19778;SDS011;10049;59.306;18.090;2023-05-23T13:53:23;0.82;;;0.70;;
19778;SDS011;10049;59.306;18.090;2023-05-23T13:55:50;2.60;;;0.70;;
19778;SDS011;10049;59.306;18.090;2023-05-23T13:58:18;0.80;;;0.70;;
19778;SDS011;10049;59.306;18.090;2023-05-23T14:00:49;0.98;;;0.80;;
19778;SDS011;10049;59.306;18.090;2023-05-23T14:03:17;1.20;;;0.73;;
19778;SDS011;10049;59.306;18.090;2023-05-23T14:05:44;1.52;;;0.50;;
19778;SDS011;10049;59.306;18.090;2023-05-23T14:08:12;0.98;;;0.77;;
19778;SDS011;10049;59.306;18.090;2023-05-23T14:10:40;0.80;;;0.70;;
19778;SDS011;10049;59.306;18.090;2023-05-23T14:13:07;2.90;;;0.60;;
19778;SDS011;10049;59.306;18.090;2023-05-23T14:15:42;0.98;;;0.70;;
19778;SDS011;10049;59.306;18.090;2023-05-23T14:18:12;5.07;;;0.80;;
19778;SDS011;10049;59.306;18.090;2023-05-23T14:20:40;1.80;;;0.73;;
19778;SDS011;10049;59.306;18.090;2023-05-23T14:23:07;0.85;;;0.60;;
19778;SDS011;10049;59.306;18.090;2023-05-23T14:25:35;1.23;;;0.60;;
19778;SDS011;10049;59.306;18.090;2023-05-23T14:28:02;2.10;;;0.85;;
19778;SDS011;10049;59.306;18.090;2023-05-23T14:30:31;0.70;;;0.70;;
19778;SDS011;10049;59.306;18.090;2023-05-23T14:33:04;1.60;;;0.60;;
19778;SDS011;10049;59.306;18.090;2023-05-23T14:35:33;1.98;;;0.77;;
19778;SDS011;10049;59.306;18.090;2023-05-23T14:38:06;3.33;;;0.80;;
19778;SDS011;10049;59.306;18.090;2023-05-23T14:40:55;0.70;;;0.70;;
19778;SDS011;10049;59.306;18.090;2023-05-23T14:43:25;3.92;;;0.90;;
19778;SDS011;10049;59.306;18.090;2023-05-23T14:45:53;2.22;;;0.80;;
19778;SDS011;10049;59.306;18.090;2023-05-23T14:48:23;0.85;;;0.70;;
19778;SDS011;10049;59.306;18.090;2023-05-23T14:50:54;4.05;;;0.80;;
19778;SDS011;10049;59.306;18.090;2023-05-23T14:53:29;0.80;;;0.77;;
19778;SDS011;10049;59.306;18.090;2023-05-23T14:55:58;1.02;;;0.70;;